Time;durP1;ratioP1;P1;durP2;ratioP2;P2;SDS_P1;SDS_P2;PMS_P1;PMS_P2;Temp;Humidity;BMP_temperature;BMP_pressure;BME280_temperature;BME280_humidity;BME280_pressure;Samples;Min_cycle;Max_cycle;Signal;HPM_P1;HPM_P2
2023/10/20 05:01:47;;;;;;;25.23;12.90;;;;;;;;;;5448343;23;20511;-72
2023/10/20 05:04:22;;;;;;;11.07;6.37;;;;;;;;;;4972841;28;20420;-73
2023/10/20 05:06:58;;;;;;;9.43;6.20;;;;;;;;;;4972845;28;20902;-73
2023/10/20 05:09:25;;;;;;;11.50;7.00;;;;;;;;;;4972875;28;20415;-73
2023/10/20 05:11:52;;;;;;;13.57;8.40;;;;;;;;;;4972923;28;20435;-73
2023/10/20 05:14:17;;;;;;;14.37;7.73;;;;;;;;;;4973135;28;20415;-73
2023/10/20 05:16:43;;;;;;;18.83;8.17;;;;;;;;;;4972609;28;20819;-73
2023/10/20 05:19:10;;;;;;;34.40;14.83;;;;;;;;;;4970484;28;20772;-73
2023/10/20 05:21:38;;;;;;;20.47;13.00;;;;;;;;;;4970012;28;20466;-73
2023/10/20 05:24:04;;;;;;;15.67;9.10;;;;;;;;;;4968447;28;20439;-76
2023/10/20 05:26:31;;;;;;;17.87;10.43;;;;;;;;;;4960156;28;20424;-73
2023/10/20 05:28:57;;;;;;;14.33;8.33;;;;;;;;;;4953488;29;20413;-73
2023/10/20 05:31:27;;;;;;;12.57;7.10;;;;;;;;;;4953169;29;20487;-74
2023/10/20 05:33:54;;;;;;;23.43;11.57;;;;;;;;;;4968515;28;20435;-71
2023/10/20 05:36:20;;;;;;;18.38;9.30;;;;;;;;;;4968974;28;20450;-72
2023/10/20 05:38:46;;;;;;;15.57;8.20;;;;;;;;;;4962866;28;20420;-71
2023/10/20 05:41:12;;;;;;;17.90;9.00;;;;;;;;;;4968389;28;20529;-70
2023/10/20 05:43:38;;;;;;;21.60;12.70;;;;;;;;;;4969316;28;20464;-73
2023/10/20 05:46:05;;;;;;;14.47;9.30;;;;;;;;;;4970398;28;20435;-72
2023/10/20 05:48:31;;;;;;;19.33;10.40;;;;;;;;;;4966960;28;20416;-72
2023/10/20 05:50:58;;;;;;;20.63;11.00;;;;;;;;;;4963040;28;20495;-71
2023/10/20 05:53:25;;;;;;;13.00;8.57;;;;;;;;;;4963782;28;20442;-71
2023/10/20 05:55:51;;;;;;;16.47;9.90;;;;;;;;;;4973223;28;20563;-71
2023/10/20 05:58:17;;;;;;;17.80;9.67;;;;;;;;;;4974732;28;20463;-71
2023/10/20 06:00:43;;;;;;;17.90;10.90;;;;;;;;;;4958335;28;20455;-71
2023/10/20 06:03:09;;;;;;;19.73;10.40;;;;;;;;;;4958301;28;20979;-72
2023/10/20 06:05:35;;;;;;;23.83;16.70;;;;;;;;;;4967594;28;20436;-74
2023/10/20 06:08:02;;;;;;;17.63;10.30;;;;;;;;;;4965507;28;20998;-74
2023/10/20 06:10:29;;;;;;;19.70;10.27;;;;;;;;;;4971195;28;20438;-70
2023/10/20 06:12:55;;;;;;;23.13;10.47;;;;;;;;;;4975338;28;20424;-69
2023/10/20 06:15:22;;;;;;;18.10;9.60;;;;;;;;;;4970139;28;20828;-70
2023/10/20 06:17:49;;;;;;;26.03;10.90;;;;;;;;;;4970542;28;20432;-70
2023/10/20 06:20:15;;;;;;;17.67;10.77;;;;;;;;;;4975298;28;20477;-70
2023/10/20 06:22:42;;;;;;;18.90;11.10;;;;;;;;;;4974364;28;20428;-71
2023/10/20 06:25:15;;;;;;;20.30;12.53;;;;;;;;;;4975802;28;20412;-72
2023/10/20 06:27:42;;;;;;;21.53;12.23;;;;;;;;;;4958994;28;20421;-72
2023/10/20 06:30:14;;;;;;;20.23;11.27;;;;;;;;;;4944390;28;20423;-74
2023/10/20 06:32:42;;;;;;;18.47;11.60;;;;;;;;;;4975388;28;20400;-75
2023/10/20 06:35:09;;;;;;;21.57;11.80;;;;;;;;;;4975232;28;20426;-73
2023/10/20 06:40:07;;;;;;;20.20;12.10;;;;;;;;;;4974988;28;20503;-73
2023/10/20 06:42:34;;;;;;;33.03;16.60;;;;;;;;;;4958220;28;20499;-71
2023/10/20 06:45:04;;;;;;;22.90;12.23;;;;;;;;;;4975024;28;20408;-72
2023/10/20 06:47:30;;;;;;;26.53;14.97;;;;;;;;;;4974705;28;20411;-72
2023/10/20 06:49:56;;;;;;;22.33;12.57;;;;;;;;;;4975300;28;20477;-73
2023/10/20 06:52:22;;;;;;;23.33;12.97;;;;;;;;;;4974670;28;20989;-73
2023/10/20 06:54:49;;;;;;;27.40;14.37;;;;;;;;;;4967619;28;20527;-73
2023/10/20 06:57:16;;;;;;;27.97;13.53;;;;;;;;;;4968614;28;20965;-73
2023/10/20 06:59:42;;;;;;;32.47;17.17;;;;;;;;;;4973730;28;20534;-73
2023/10/20 07:02:08;;;;;;;29.87;15.70;;;;;;;;;;4973865;28;20550;-73
2023/10/20 07:04:33;;;;;;;26.90;17.00;;;;;;;;;;4974718;28;20510;-73
2023/10/20 07:06:59;;;;;;;31.30;16.70;;;;;;;;;;4974391;28;20424;-73
2023/10/20 07:09:26;;;;;;;30.80;16.23;;;;;;;;;;4974202;28;20424;-74
2023/10/20 07:11:52;;;;;;;24.90;14.57;;;;;;;;;;4974187;28;20459;-72
2023/10/20 07:14:18;;;;;;;26.77;15.40;;;;;;;;;;4974165;28;20486;-72
2023/10/20 07:16:44;;;;;;;30.57;16.40;;;;;;;;;;4973555;28;20553;-72
2023/10/20 07:19:11;;;;;;;25.27;14.97;;;;;;;;;;4973739;28;20454;-73
2023/10/20 07:21:37;;;;;;;32.30;13.87;;;;;;;;;;4974332;28;20488;-74
2023/10/20 07:24:03;;;;;;;20.23;13.40;;;;;;;;;;4973956;28;20542;-71
2023/10/20 07:26:29;;;;;;;23.40;13.40;;;;;;;;;;4974377;28;20490;-72
2023/10/20 07:28:55;;;;;;;28.87;16.63;;;;;;;;;;4973240;28;20487;-73
2023/10/20 07:31:21;;;;;;;20.90;13.00;;;;;;;;;;4973447;28;20455;-73
2023/10/20 07:33:50;;;;;;;23.77;13.57;;;;;;;;;;4974363;28;20412;-73
2023/10/20 07:36:16;;;;;;;22.47;11.63;;;;;;;;;;4973687;28;20526;-74
2023/10/20 07:38:43;;;;;;;23.97;12.17;;;;;;;;;;4954243;28;20436;-72
2023/10/20 07:41:10;;;;;;;24.27;13.33;;;;;;;;;;4954260;28;20437;-73
2023/10/20 07:43:36;;;;;;;20.37;11.83;;;;;;;;;;4968684;28;20428;-74
2023/10/20 07:46:02;;;;;;;22.63;12.47;;;;;;;;;;4968381;28;20752;-74
2023/10/20 07:48:28;;;;;;;36.77;17.03;;;;;;;;;;4953057;29;20492;-71
2023/10/20 07:50:59;;;;;;;18.97;11.27;;;;;;;;;;4954462;28;20769;-73
2023/10/20 07:53:25;;;;;;;27.97;14.63;;;;;;;;;;4954524;29;20405;-74
2023/10/20 07:55:51;;;;;;;23.83;13.60;;;;;;;;;;4957195;28;20523;-74
2023/10/20 07:58:17;;;;;;;31.50;17.67;;;;;;;;;;4954381;29;20444;-72
2023/10/20 08:00:43;;;;;;;24.77;13.23;;;;;;;;;;4969725;28;20459;-72
2023/10/20 08:03:11;;;;;;;22.60;13.60;;;;;;;;;;4938058;28;20483;-75
2023/10/20 08:05:37;;;;;;;21.90;12.80;;;;;;;;;;4972442;28;20431;-77
2023/10/20 08:08:04;;;;;;;20.63;12.43;;;;;;;;;;4973148;28;20927;-74
2023/10/20 08:10:30;;;;;;;26.40;13.67;;;;;;;;;;4948008;28;20547;-73
2023/10/20 08:12:55;;;;;;;22.73;13.30;;;;;;;;;;4972409;28;20514;-75
2023/10/20 08:15:21;;;;;;;21.50;12.70;;;;;;;;;;4972891;28;20430;-75
2023/10/20 08:17:49;;;;;;;31.40;14.67;;;;;;;;;;4965818;28;20478;-74
2023/10/20 08:20:16;;;;;;;25.43;13.03;;;;;;;;;;4973063;28;20495;-73
2023/10/20 08:22:43;;;;;;;21.50;11.83;;;;;;;;;;4969382;28;20576;-72
2023/10/20 08:25:09;;;;;;;22.80;12.57;;;;;;;;;;4972864;28;20420;-73
2023/10/20 08:27:36;;;;;;;24.57;14.13;;;;;;;;;;4972672;28;20423;-73
2023/10/20 08:30:02;;;;;;;25.53;14.00;;;;;;;;;;4972028;28;20424;-73
2023/10/20 08:32:29;;;;;;;27.73;13.73;;;;;;;;;;4972544;28;20484;-73
2023/10/20 08:34:55;;;;;;;26.30;14.20;;;;;;;;;;4972823;28;20431;-70
2023/10/20 08:37:21;;;;;;;20.83;12.30;;;;;;;;;;4973288;28;20464;-72
2023/10/20 08:39:47;;;;;;;27.10;13.40;;;;;;;;;;4972481;28;20430;-71
2023/10/20 08:42:19;;;;;;;23.27;13.33;;;;;;;;;;4961053;28;20433;-71
2023/10/20 08:44:46;;;;;;;24.43;13.30;;;;;;;;;;4955027;29;20660;-72
2023/10/20 08:47:16;;;;;;;26.10;14.90;;;;;;;;;;4953641;28;20427;-70
2023/10/20 08:49:42;;;;;;;21.93;13.37;;;;;;;;;;4963327;28;20834;-71
2023/10/20 08:52:09;;;;;;;20.93;13.30;;;;;;;;;;4972585;28;20459;-72
2023/10/20 08:54:35;;;;;;;24.30;12.67;;;;;;;;;;4967995;28;21195;-73
2023/10/20 08:57:02;;;;;;;20.80;12.93;;;;;;;;;;4953564;28;20464;-73
2023/10/20 08:59:28;;;;;;;19.27;12.17;;;;;;;;;;4953527;29;20413;-72
2023/10/20 09:01:54;;;;;;;22.63;12.77;;;;;;;;;;4953400;28;20457;-72
2023/10/20 09:04:21;;;;;;;20.80;11.63;;;;;;;;;;4954142;28;20421;-72
2023/10/20 09:06:47;;;;;;;21.63;11.97;;;;;;;;;;4958706;28;20580;-73
2023/10/20 09:09:14;;;;;;;21.60;12.70;;;;;;;;;;4972511;28;20903;-72
2023/10/20 09:11:43;;;;;;;23.27;12.80;;;;;;;;;;4967845;28;21407;-72
2023/10/20 09:14:10;;;;;;;29.53;13.40;;;;;;;;;;4971441;28;20446;-73
2023/10/20 09:16:36;;;;;;;24.03;13.00;;;;;;;;;;4972315;28;20463;-70
2023/10/20 09:19:03;;;;;;;22.60;12.80;;;;;;;;;;4959017;28;20480;-74
2023/10/20 09:21:29;;;;;;;21.77;12.90;;;;;;;;;;4958340;28;20476;-73
2023/10/20 09:23:58;;;;;;;19.33;12.77;;;;;;;;;;4957374;29;20444;-73
2023/10/20 09:26:26;;;;;;;22.80;12.43;;;;;;;;;;4957016;28;20420;-71
2023/10/20 09:28:56;;;;;;;20.37;13.17;;;;;;;;;;4975853;28;20498;-73
2023/10/20 09:31:22;;;;;;;30.20;13.17;;;;;;;;;;4975849;28;20435;-74
2023/10/20 09:33:49;;;;;;;20.40;12.40;;;;;;;;;;4976542;28;20420;-73
2023/10/20 09:36:15;;;;;;;21.63;14.60;;;;;;;;;;4961120;28;20821;-73
2023/10/20 09:38:45;;;;;;;25.67;14.07;;;;;;;;;;4959957;28;20450;-74
2023/10/20 09:41:12;;;;;;;23.80;12.00;;;;;;;;;;4969522;28;21015;-74
2023/10/20 09:43:47;;;;;;;26.47;14.97;;;;;;;;;;4970235;28;20428;-73
2023/10/20 09:46:19;;;;;;;22.03;13.10;;;;;;;;;;4976024;28;20427;-74
2023/10/20 09:48:47;;;;;;;23.73;12.80;;;;;;;;;;4974831;28;20419;-72
2023/10/20 09:51:15;;;;;;;22.33;12.03;;;;;;;;;;4971334;28;20456;-72
2023/10/20 09:53:41;;;;;;;18.20;11.70;;;;;;;;;;4974021;28;20420;-72
2023/10/20 09:56:08;;;;;;;25.07;12.90;;;;;;;;;;4971500;28;20523;-72
2023/10/20 09:58:36;;;;;;;19.73;12.20;;;;;;;;;;4957249;28;20881;-73
2023/10/20 10:01:03;;;;;;;19.53;11.77;;;;;;;;;;4957115;28;20922;-71
2023/10/20 10:03:30;;;;;;;18.73;11.13;;;;;;;;;;4970438;28;20420;-74
2023/10/20 10:05:56;;;;;;;22.27;12.20;;;;;;;;;;4971113;28;20428;-74
2023/10/20 10:08:22;;;;;;;19.07;10.13;;;;;;;;;;4956436;28;20433;-75
2023/10/20 10:10:49;;;;;;;25.47;11.97;;;;;;;;;;4966251;28;20811;-75
2023/10/20 10:13:16;;;;;;;21.53;10.70;;;;;;;;;;4960164;28;20428;-75
2023/10/20 10:15:46;;;;;;;19.30;10.30;;;;;;;;;;4956267;29;20464;-74
2023/10/20 10:18:13;;;;;;;18.40;10.80;;;;;;;;;;4956213;28;20897;-75
2023/10/20 10:20:42;;;;;;;16.23;9.70;;;;;;;;;;4955667;29;20424;-72
2023/10/20 10:23:10;;;;;;;13.27;9.00;;;;;;;;;;4955804;28;20896;-72
2023/10/20 10:25:37;;;;;;;13.80;9.60;;;;;;;;;;4955901;29;20945;-73
2023/10/20 10:28:12;;;;;;;19.90;10.13;;;;;;;;;;4956915;28;20515;-75
2023/10/20 10:30:39;;;;;;;15.70;9.77;;;;;;;;;;4972319;28;20443;-73
2023/10/20 10:33:06;;;;;;;14.47;8.63;;;;;;;;;;4943926;29;20425;-73
2023/10/20 10:35:32;;;;;;;16.93;8.20;;;;;;;;;;4956123;29;20413;-73
2023/10/20 10:37:58;;;;;;;14.57;8.57;;;;;;;;;;4955831;28;20420;-73
2023/10/20 10:40:25;;;;;;;11.20;7.70;;;;;;;;;;4955468;29;20500;-72
2023/10/20 10:42:52;;;;;;;14.53;7.80;;;;;;;;;;4955872;28;20417;-74
2023/10/20 10:45:19;;;;;;;10.83;7.53;;;;;;;;;;4955755;29;20912;-74
2023/10/20 10:47:46;;;;;;;10.27;7.00;;;;;;;;;;4955756;28;20420;-73
2023/10/20 10:50:12;;;;;;;14.30;8.50;;;;;;;;;;4964883;28;20427;-74
2023/10/20 10:52:38;;;;;;;13.23;7.27;;;;;;;;;;4973466;28;20927;-74
2023/10/20 10:55:05;;;;;;;12.83;8.30;;;;;;;;;;4974912;28;20434;-74
2023/10/20 10:57:31;;;;;;;10.93;7.80;;;;;;;;;;4974518;28;20974;-73
2023/10/20 10:59:57;;;;;;;11.33;6.33;;;;;;;;;;4974763;28;20942;-74
2023/10/20 11:02:24;;;;;;;11.23;7.03;;;;;;;;;;4967224;28;20495;-74
2023/10/20 11:04:50;;;;;;;12.13;6.90;;;;;;;;;;4974057;28;20731;-75
2023/10/20 11:07:16;;;;;;;12.00;5.80;;;;;;;;;;4974478;28;20482;-73
2023/10/20 11:09:42;;;;;;;12.67;6.83;;;;;;;;;;4973830;28;20463;-73
2023/10/20 11:12:10;;;;;;;8.70;5.20;;;;;;;;;;4974262;28;20946;-72
2023/10/20 11:14:38;;;;;;;8.37;4.93;;;;;;;;;;4973600;28;20432;-65
2023/10/20 11:17:04;;;;;;;8.90;4.90;;;;;;;;;;4965716;28;20481;-66
2023/10/20 11:19:30;;;;;;;9.20;4.60;;;;;;;;;;4954250;29;20436;-66
2023/10/20 11:21:57;;;;;;;6.33;3.40;;;;;;;;;;4954460;28;20429;-71
2023/10/20 11:24:25;;;;;;;4.33;2.60;;;;;;;;;;4954590;29;20431;-73
2023/10/20 11:26:58;;;;;;;2.77;2.17;;;;;;;;;;4954725;28;20460;-72
2023/10/20 11:29:31;;;;;;;3.10;1.60;;;;;;;;;;4954430;29;20760;-73
2023/10/20 11:31:58;;;;;;;2.80;1.50;;;;;;;;;;4954515;28;20428;-73
2023/10/20 11:34:25;;;;;;;2.27;1.50;;;;;;;;;;4954727;29;20896;-74
2023/10/20 11:36:51;;;;;;;1.73;1.07;;;;;;;;;;4937993;29;20480;-71
2023/10/20 11:39:17;;;;;;;1.70;1.20;;;;;;;;;;4957695;28;20443;-71
2023/10/20 11:41:44;;;;;;;2.53;1.57;;;;;;;;;;4962632;28;20439;-71
2023/10/20 11:44:10;;;;;;;1.40;1.30;;;;;;;;;;4970317;28;20423;-72
2023/10/20 11:46:36;;;;;;;1.33;1.00;;;;;;;;;;4973356;28;20435;-75
2023/10/20 11:49:03;;;;;;;1.70;1.10;;;;;;;;;;4972831;28;20514;-74
2023/10/20 11:51:29;;;;;;;1.53;1.17;;;;;;;;;;4973006;28;20543;-74
2023/10/20 11:53:55;;;;;;;1.60;1.20;;;;;;;;;;4973172;28;20840;-72
2023/10/20 11:56:21;;;;;;;3.50;1.30;;;;;;;;;;4973502;28;20472;-72
2023/10/20 11:58:47;;;;;;;1.10;0.80;;;;;;;;;;4972979;28;20431;-71
2023/10/20 12:01:13;;;;;;;2.33;1.30;;;;;;;;;;4969005;28;20467;-72
2023/10/20 12:03:39;;;;;;;8.23;1.67;;;;;;;;;;4971944;28;20439;-73
2023/10/20 12:06:06;;;;;;;3.27;1.50;;;;;;;;;;4961917;28;20925;-72
2023/10/20 12:08:32;;;;;;;8.60;1.27;;;;;;;;;;4953854;29;20436;-74
2023/10/20 12:11:00;;;;;;;1.77;1.23;;;;;;;;;;4955281;28;20736;-73
2023/10/20 12:13:26;;;;;;;2.00;1.23;;;;;;;;;;4969843;28;20428;-72
2023/10/20 12:15:52;;;;;;;1.10;1.00;;;;;;;;;;4964523;28;20476;-73
2023/10/20 12:18:18;;;;;;;4.57;1.13;;;;;;;;;;4973284;28;20519;-72
2023/10/20 12:20:47;;;;;;;1.93;0.90;;;;;;;;;;4965363;28;20452;-73
2023/10/20 12:23:13;;;;;;;1.47;1.00;;;;;;;;;;4966512;28;20420;-74
2023/10/20 12:25:39;;;;;;;3.20;1.83;;;;;;;;;;4973536;28;21041;-74
2023/10/20 12:28:06;;;;;;;1.97;1.30;;;;;;;;;;4972424;28;20791;-75
2023/10/20 12:30:32;;;;;;;3.13;1.43;;;;;;;;;;4975034;28;20439;-73
2023/10/20 12:32:59;;;;;;;4.73;2.17;;;;;;;;;;4977224;28;20408;-74
2023/10/20 12:35:25;;;;;;;1.90;1.30;;;;;;;;;;4978501;28;20498;-72
2023/10/20 12:37:51;;;;;;;1.90;1.20;;;;;;;;;;4977264;28;20464;-72
2023/10/20 12:40:18;;;;;;;3.70;1.20;;;;;;;;;;4976943;28;20414;-74
2023/10/20 12:42:44;;;;;;;1.60;1.20;;;;;;;;;;4979443;28;20503;-74
2023/10/20 12:45:10;;;;;;;3.10;0.90;;;;;;;;;;4978665;28;20404;-73
2023/10/20 12:47:39;;;;;;;2.70;1.30;;;;;;;;;;4979629;28;20424;-73
2023/10/20 12:50:06;;;;;;;1.57;1.10;;;;;;;;;;4979464;28;20498;-74
2023/10/20 12:52:32;;;;;;;1.13;0.97;;;;;;;;;;4979957;28;20494;-73
2023/10/20 12:55:00;;;;;;;2.60;1.50;;;;;;;;;;4979516;28;20426;-73
2023/10/20 12:57:26;;;;;;;2.50;1.10;;;;;;;;;;4964278;28;20468;-73
2023/10/20 12:59:52;;;;;;;4.60;1.10;;;;;;;;;;4980591;28;20407;-73
2023/10/20 13:02:18;;;;;;;3.70;1.23;;;;;;;;;;4979462;28;20451;-74
2023/10/20 13:04:44;;;;;;;8.13;2.77;;;;;;;;;;4980432;28;20404;-74
2023/10/20 13:07:10;;;;;;;2.10;1.40;;;;;;;;;;4979880;28;20999;-74
2023/10/20 13:09:35;;;;;;;1.97;1.20;;;;;;;;;;4977357;28;20506;-74
2023/10/20 13:12:01;;;;;;;1.67;1.13;;;;;;;;;;4977173;28;20424;-74
2023/10/20 13:14:28;;;;;;;2.00;1.23;;;;;;;;;;4979378;28;20443;-73
2023/10/20 13:16:54;;;;;;;1.17;1.10;;;;;;;;;;4979291;28;20487;-74
2023/10/20 13:19:20;;;;;;;1.80;0.70;;;;;;;;;;4980002;28;20838;-73
2023/10/20 13:21:46;;;;;;;1.27;1.03;;;;;;;;;;4978506;28;20428;-73
2023/10/20 13:24:12;;;;;;;2.70;1.27;;;;;;;;;;4978459;28;20900;-74
2023/10/20 13:26:38;;;;;;;2.60;1.07;;;;;;;;;;4978371;28;20433;-73
2023/10/20 13:29:04;;;;;;;1.53;1.10;;;;;;;;;;4978448;28;20408;-75
2023/10/20 13:31:30;;;;;;;2.17;1.00;;;;;;;;;;4979230;28;20438;-75
2023/10/20 13:33:56;;;;;;;1.50;1.10;;;;;;;;;;4978664;28;20412;-75
2023/10/20 13:36:22;;;;;;;1.23;1.07;;;;;;;;;;4978812;28;20862;-75
2023/10/20 13:38:48;;;;;;;1.63;1.00;;;;;;;;;;4977245;28;20758;-73
2023/10/20 13:41:14;;;;;;;1.37;1.00;;;;;;;;;;4968355;28;20468;-74
2023/10/20 13:43:41;;;;;;;1.00;0.93;;;;;;;;;;4975762;28;20423;-74
2023/10/20 13:46:07;;;;;;;2.57;1.30;;;;;;;;;;4980803;28;20447;-74
2023/10/20 13:48:34;;;;;;;3.70;0.87;;;;;;;;;;4981492;28;20411;-73
2023/10/20 13:51:00;;;;;;;3.50;1.20;;;;;;;;;;4979838;28;20438;-74
2023/10/20 13:53:26;;;;;;;1.73;1.27;;;;;;;;;;4981201;28;20447;-74
2023/10/20 13:55:52;;;;;;;3.40;1.60;;;;;;;;;;4962939;28;20478;-75
2023/10/20 13:58:18;;;;;;;4.10;1.00;;;;;;;;;;4979646;28;20412;-73
2023/10/20 14:00:44;;;;;;;1.97;1.13;;;;;;;;;;4979983;28;20458;-73
2023/10/20 14:03:12;;;;;;;1.47;1.20;;;;;;;;;;4962691;28;20479;-74
2023/10/20 14:05:38;;;;;;;1.10;0.80;;;;;;;;;;4962435;28;20427;-74
2023/10/20 14:08:04;;;;;;;2.00;1.03;;;;;;;;;;4983492;28;20749;-74
2023/10/20 14:10:31;;;;;;;2.30;1.00;;;;;;;;;;4983209;28;20428;-75
2023/10/20 14:12:57;;;;;;;4.63;1.03;;;;;;;;;;4983127;28;20416;-74
2023/10/20 14:15:23;;;;;;;4.70;1.37;;;;;;;;;;4983672;28;20419;-73
2023/10/20 14:17:49;;;;;;;1.47;0.80;;;;;;;;;;4985375;28;20561;-74
2023/10/20 14:20:15;;;;;;;2.03;1.07;;;;;;;;;;4983642;28;20423;-73
2023/10/20 14:22:42;;;;;;;1.97;1.10;;;;;;;;;;4967140;28;20416;-73
2023/10/20 14:25:08;;;;;;;1.30;0.90;;;;;;;;;;4984579;28;20491;-74
2023/10/20 14:27:34;;;;;;;1.10;1.00;;;;;;;;;;4984604;28;20420;-74
2023/10/20 14:30:01;;;;;;;4.93;0.90;;;;;;;;;;4983656;28;20511;-74
2023/10/20 14:32:27;;;;;;;1.10;0.90;;;;;;;;;;4983611;28;21195;-74
2023/10/20 14:34:53;;;;;;;1.20;1.00;;;;;;;;;;4967170;28;20543;-74
2023/10/20 14:37:19;;;;;;;1.53;1.10;;;;;;;;;;4966259;28;20720;-74
2023/10/20 14:39:45;;;;;;;1.53;0.90;;;;;;;;;;4984053;28;20770;-74
2023/10/20 14:42:11;;;;;;;1.30;1.07;;;;;;;;;;4984565;28;20436;-74
2023/10/20 14:44:37;;;;;;;1.90;0.90;;;;;;;;;;4984491;28;20412;-74
2023/10/20 14:47:03;;;;;;;3.20;1.20;;;;;;;;;;4983333;28;20420;-73
2023/10/20 14:49:30;;;;;;;1.23;1.20;;;;;;;;;;4980951;28;20420;-73
2023/10/20 14:51:56;;;;;;;1.10;1.10;;;;;;;;;;4983128;28;20499;-73
2023/10/20 14:54:22;;;;;;;0.90;0.80;;;;;;;;;;4962558;28;20509;-69
2023/10/20 14:56:49;;;;;;;0.90;0.80;;;;;;;;;;4975046;28;20462;-69
2023/10/20 14:59:15;;;;;;;1.83;0.90;;;;;;;;;;4974758;28;20436;-68
2023/10/20 15:01:41;;;;;;;1.20;1.00;;;;;;;;;;4973981;28;20522;-69
2023/10/20 15:04:07;;;;;;;1.50;1.10;;;;;;;;;;4968409;28;20443;-70
2023/10/20 15:06:33;;;;;;;1.20;1.17;;;;;;;;;;4968884;28;20836;-71
2023/10/20 15:08:59;;;;;;;1.90;1.13;;;;;;;;;;4964234;28;20514;-71
2023/10/20 15:11:25;;;;;;;1.70;1.20;;;;;;;;;;4968265;28;20506;-74
2023/10/20 15:13:51;;;;;;;1.67;1.10;;;;;;;;;;4958246;28;20432;-71
2023/10/20 15:16:18;;;;;;;1.53;1.00;;;;;;;;;;4967057;28;20471;-72
2023/10/20 15:18:45;;;;;;;3.17;1.47;;;;;;;;;;4964062;28;20958;-69
2023/10/20 15:21:11;;;;;;;1.93;1.10;;;;;;;;;;4969136;28;20442;-71
2023/10/20 15:23:37;;;;;;;2.40;0.90;;;;;;;;;;4974357;28;20416;-69
2023/10/20 15:26:04;;;;;;;5.53;1.50;;;;;;;;;;4956302;28;20425;-70
2023/10/20 15:28:30;;;;;;;1.67;0.80;;;;;;;;;;4954618;28;20475;-69
2023/10/20 15:30:56;;;;;;;2.73;1.30;;;;;;;;;;4954905;28;20928;-69
2023/10/20 15:33:22;;;;;;;2.07;1.40;;;;;;;;;;4954968;28;20456;-70
2023/10/20 15:35:48;;;;;;;3.53;1.40;;;;;;;;;;4954876;28;20935;-70
2023/10/20 15:38:14;;;;;;;1.33;1.23;;;;;;;;;;4954901;28;20917;-70
2023/10/20 15:40:42;;;;;;;2.33;1.10;;;;;;;;;;4965012;28;20458;-70
2023/10/20 15:43:08;;;;;;;1.20;1.00;;;;;;;;;;4965923;28;20806;-71
2023/10/20 15:45:34;;;;;;;1.43;1.10;;;;;;;;;;4958567;28;20564;-74
2023/10/20 15:48:03;;;;;;;1.30;1.00;;;;;;;;;;4965977;28;20855;-74
2023/10/20 15:50:30;;;;;;;1.80;1.40;;;;;;;;;;4960013;28;20800;-76
2023/10/20 15:52:56;;;;;;;2.40;1.47;;;;;;;;;;4954414;29;20483;-75
2023/10/20 15:55:22;;;;;;;2.70;1.40;;;;;;;;;;4954658;29;20413;-72
2023/10/20 15:57:48;;;;;;;2.23;1.60;;;;;;;;;;4937289;29;20476;-74
2023/10/20 16:00:15;;;;;;;9.47;1.67;;;;;;;;;;4954167;29;20416;-74
2023/10/20 16:02:41;;;;;;;5.40;2.07;;;;;;;;;;4954244;29;20476;-74
2023/10/20 16:05:08;;;;;;;4.00;1.93;;;;;;;;;;4973387;28;20454;-75
2023/10/20 16:07:34;;;;;;;6.50;1.70;;;;;;;;;;4973648;28;20412;-74
2023/10/20 16:10:00;;;;;;;6.93;2.90;;;;;;;;;;4973474;28;20419;-74
2023/10/20 16:12:26;;;;;;;2.93;2.03;;;;;;;;;;4973480;28;20431;-74
2023/10/20 16:14:52;;;;;;;3.07;2.03;;;;;;;;;;4973628;28;20815;-74
2023/10/20 16:17:18;;;;;;;4.00;2.37;;;;;;;;;;4973155;28;20467;-74
2023/10/20 16:19:44;;;;;;;6.40;2.73;;;;;;;;;;4973202;28;20412;-73
2023/10/20 16:22:10;;;;;;;10.00;4.70;;;;;;;;;;4973425;28;20485;-74
2023/10/20 16:24:36;;;;;;;7.23;3.73;;;;;;;;;;4973270;28;20415;-74
2023/10/20 16:27:04;;;;;;;7.37;3.67;;;;;;;;;;4973246;28;20419;-74
2023/10/20 16:29:30;;;;;;;10.23;4.83;;;;;;;;;;4972088;28;20435;-74
2023/10/20 16:31:56;;;;;;;9.73;3.93;;;;;;;;;;4972252;28;20450;-74
2023/10/20 16:34:22;;;;;;;7.33;3.43;;;;;;;;;;4973092;28;20522;-74
2023/10/20 16:36:49;;;;;;;6.60;2.53;;;;;;;;;;4973253;28;20482;-75
2023/10/20 16:39:16;;;;;;;5.30;3.20;;;;;;;;;;4972907;28;20412;-75
2023/10/20 16:41:42;;;;;;;8.90;4.10;;;;;;;;;;4973065;28;20431;-73
2023/10/20 16:44:08;;;;;;;7.47;3.97;;;;;;;;;;4972846;28;20431;-73
2023/10/20 16:46:40;;;;;;;10.40;5.00;;;;;;;;;;4972642;28;20431;-72
2023/10/20 16:49:06;;;;;;;10.17;4.30;;;;;;;;;;4973052;28;20419;-73
2023/10/20 16:51:32;;;;;;;11.03;3.97;;;;;;;;;;4972811;28;20926;-74
2023/10/20 16:53:58;;;;;;;11.33;3.60;;;;;;;;;;4972833;28;20408;-74
2023/10/20 16:56:24;;;;;;;10.47;4.10;;;;;;;;;;4972966;28;20463;-74
2023/10/20 16:58:50;;;;;;;8.33;4.63;;;;;;;;;;4972138;28;20403;-73
2023/10/20 17:01:17;;;;;;;10.10;4.13;;;;;;;;;;4972392;28;20451;-74
2023/10/20 17:03:43;;;;;;;7.87;3.70;;;;;;;;;;4972678;28;20432;-73
2023/10/20 17:06:09;;;;;;;7.30;3.97;;;;;;;;;;4972816;28;20482;-73
2023/10/20 17:08:35;;;;;;;6.77;3.90;;;;;;;;;;4972508;28;20412;-73
2023/10/20 17:11:03;;;;;;;5.77;3.20;;;;;;;;;;4973297;28;20436;-73
2023/10/20 17:13:29;;;;;;;7.33;4.10;;;;;;;;;;4972891;28;20423;-72
2023/10/20 17:15:55;;;;;;;6.03;3.20;;;;;;;;;;4955031;28;20435;-76
2023/10/20 17:18:21;;;;;;;8.20;3.50;;;;;;;;;;4972864;28;20412;-77
2023/10/20 17:20:47;;;;;;;7.43;3.40;;;;;;;;;;4972522;28;20432;-74
2023/10/20 17:23:14;;;;;;;4.90;2.77;;;;;;;;;;4971986;28;20459;-72
2023/10/20 17:25:46;;;;;;;8.33;2.60;;;;;;;;;;4972529;28;20408;-74
2023/10/20 17:28:12;;;;;;;9.60;3.13;;;;;;;;;;4972474;28;20422;-74
2023/10/20 17:30:38;;;;;;;3.60;2.57;;;;;;;;;;4972279;28;20428;-72
2023/10/20 17:33:05;;;;;;;4.57;2.37;;;;;;;;;;4972388;28;20920;-71
2023/10/20 17:35:34;;;;;;;6.97;3.60;;;;;;;;;;4972654;28;20546;-72
2023/10/20 17:38:04;;;;;;;4.27;2.80;;;;;;;;;;4972468;28;20493;-72
2023/10/20 17:40:34;;;;;;;3.70;2.20;;;;;;;;;;4972218;28;20411;-73
2023/10/20 17:43:00;;;;;;;4.37;2.37;;;;;;;;;;4975065;28;20749;-72
2023/10/20 17:45:26;;;;;;;3.77;2.30;;;;;;;;;;4976377;28;20415;-72
2023/10/20 17:47:52;;;;;;;3.17;2.37;;;;;;;;;;4975982;28;20431;-73
2023/10/20 17:50:18;;;;;;;6.53;2.90;;;;;;;;;;4974940;28;20447;-73
2023/10/20 17:52:45;;;;;;;5.97;3.33;;;;;;;;;;4976053;28;20428;-72
2023/10/20 17:55:11;;;;;;;8.33;3.80;;;;;;;;;;4976114;28;20907;-72
2023/10/20 17:57:37;;;;;;;4.90;3.40;;;;;;;;;;4975956;28;20982;-72
2023/10/20 18:00:08;;;;;;;10.40;4.90;;;;;;;;;;4975602;28;20407;-73
2023/10/20 18:02:34;;;;;;;16.50;5.50;;;;;;;;;;4975725;28;20827;-72
2023/10/20 18:05:00;;;;;;;10.27;4.43;;;;;;;;;;4975790;28;20467;-72
2023/10/20 18:07:26;;;;;;;8.53;4.70;;;;;;;;;;4975930;28;20407;-72
2023/10/20 18:09:52;;;;;;;8.53;4.50;;;;;;;;;;4975585;28;20903;-72
2023/10/20 18:12:18;;;;;;;10.37;5.17;;;;;;;;;;4975729;28;20438;-72
2023/10/20 18:14:46;;;;;;;8.43;4.77;;;;;;;;;;4975681;28;20412;-72
2023/10/20 18:17:12;;;;;;;9.03;4.43;;;;;;;;;;4975492;28;21021;-72
2023/10/20 18:19:39;;;;;;;9.30;5.27;;;;;;;;;;4975417;28;20915;-73
2023/10/20 18:22:05;;;;;;;11.10;4.40;;;;;;;;;;4974912;28;20846;-72
2023/10/20 18:24:31;;;;;;;8.20;4.73;;;;;;;;;;4975102;28;20466;-73
2023/10/20 18:26:57;;;;;;;7.17;4.93;;;;;;;;;;4975177;28;20482;-73
2023/10/20 18:29:23;;;;;;;11.27;4.10;;;;;;;;;;4975273;28;20411;-72
2023/10/20 18:31:49;;;;;;;9.50;5.37;;;;;;;;;;4975166;28;20834;-72
2023/10/20 18:34:15;;;;;;;13.07;4.60;;;;;;;;;;4975245;28;20431;-73
2023/10/20 18:36:41;;;;;;;15.00;4.63;;;;;;;;;;4974765;28;20467;-73
2023/10/20 18:39:14;;;;;;;22.23;6.00;;;;;;;;;;4974968;28;20407;-73
2023/10/20 18:41:39;;;;;;;13.40;6.00;;;;;;;;;;4975131;28;20428;-72
2023/10/20 18:44:05;;;;;;;9.30;5.43;;;;;;;;;;4974889;28;20957;-73
2023/10/20 18:46:32;;;;;;;15.93;5.40;;;;;;;;;;4974979;28;20483;-73
2023/10/20 18:48:58;;;;;;;11.53;5.47;;;;;;;;;;4955500;29;20452;-72
2023/10/20 18:51:24;;;;;;;6.80;5.07;;;;;;;;;;4955524;28;20436;-73
2023/10/20 18:53:50;;;;;;;13.83;5.83;;;;;;;;;;4954706;28;20416;-72
2023/10/20 18:56:16;;;;;;;5.70;4.33;;;;;;;;;;4973310;28;21005;-72
2023/10/20 18:58:42;;;;;;;8.73;5.07;;;;;;;;;;4974545;28;20416;-73
2023/10/20 19:01:08;;;;;;;10.27;4.73;;;;;;;;;;4974808;28;20451;-73
2023/10/20 19:03:34;;;;;;;11.33;5.20;;;;;;;;;;4974537;28;20783;-73
2023/10/20 19:06:02;;;;;;;8.63;4.87;;;;;;;;;;4974261;28;20428;-73
2023/10/20 19:08:28;;;;;;;8.77;5.13;;;;;;;;;;4974398;28;20419;-72
2023/10/20 19:10:54;;;;;;;9.13;5.20;;;;;;;;;;4974413;28;20438;-72
2023/10/20 19:13:20;;;;;;;9.33;5.03;;;;;;;;;;4974366;28;20416;-73
2023/10/20 19:15:46;;;;;;;10.60;5.63;;;;;;;;;;4974365;28;20471;-72
2023/10/20 19:18:12;;;;;;;9.33;5.97;;;;;;;;;;4973670;28;20435;-72
2023/10/20 19:20:38;;;;;;;13.47;5.53;;;;;;;;;;4974172;28;20432;-72
2023/10/20 19:23:07;;;;;;;11.67;6.13;;;;;;;;;;4974336;28;20439;-72
2023/10/20 19:25:33;;;;;;;13.20;5.63;;;;;;;;;;4974287;28;20404;-72
2023/10/20 19:27:59;;;;;;;14.90;7.10;;;;;;;;;;4974215;28;20412;-72
2023/10/20 19:30:25;;;;;;;12.83;5.90;;;;;;;;;;4973759;28;20942;-72
2023/10/20 19:32:51;;;;;;;13.87;6.07;;;;;;;;;;4974117;28;20892;-72